PWSweather.com
Personal Weather Stations
Station Observations
THEQULMNR
A Mountain, Tucson, AZ 85713

A MountainTucson, AZ 85713

Lat: 32.205986, Lon: -111.001395

Elevation: 2440

Station Type: Netatmo

Latest ConditionsUpdated 4:45:00 PM MST Wednesday, Aug 21, 2019
Currently Today's Max Today's Min Today's Average
Temperature 109.0°F42.8°C 112.3°F44.6°C 80.1°F26.7°C 97.6°F36.4°C
Dew Point 66.9°F19.4°C 71.6°F22.0°C 49.5°F9.7°C 60.7°F15.9°C
Winds - N N - - - - -
Wind Gusts -- -- - -
Humidity 12% 31% 11% 20%
Pressure 29.82 in1009.8 mb 29.98 in1015.2 mb 29.81 in1009.5 mb -
Hour Temp Dew Point Humidity Winds Wind Gusts Pressure Precip Precip Rate Daily Precip Total
04:45 PM 109.0°F42.8°C 66.9°F19.4°C 12% - N N -- 29.82 in1009.8 mb 0.00 in0.0 mm 0.00 in0.0 mm 0.00 in0.0 mm
04:25 PM 109.4°F43.0°C 66.7°F19.3°C 11% - N N -- 29.81 in1009.5 mb 0.00 in0.0 mm 0.00 in0.0 mm 0.00 in0.0 mm
04:04 PM 109.6°F43.1°C 66.9°F19.4°C 11% - N N -- 29.82 in1009.8 mb 0.00 in0.0 mm 0.00 in0.0 mm 0.00 in0.0 mm
03:45 PM 110.7°F43.7°C 68.4°F20.2°C 12% - N N -- 29.83 in1010.2 mb 0.00 in0.0 mm 0.00 in0.0 mm 0.00 in0.0 mm
03:24 PM 110.8°F43.8°C 68.0°F20.0°C 11% - N N -- 29.83 in1010.2 mb 0.00 in0.0 mm 0.00 in0.0 mm 0.00 in0.0 mm
03:04 PM 110.5°F43.6°C 68.2°F20.1°C 12% - N N -- 29.84 in1010.5 mb 0.00 in0.0 mm 0.00 in0.0 mm 0.00 in0.0 mm
02:44 PM 111.0°F43.9°C 68.5°F20.3°C 12% - N N -- 29.85 in1010.8 mb 0.00 in0.0 mm 0.00 in0.0 mm 0.00 in0.0 mm
02:23 PM 111.0°F43.9°C 68.5°F20.3°C 12% - N N -- 29.85 in1010.8 mb 0.00 in0.0 mm 0.00 in0.0 mm 0.00 in0.0 mm
02:04 PM 110.7°F43.7°C 68.7°F20.4°C 13% - N N -- 29.86 in1011.2 mb 0.00 in0.0 mm 0.00 in0.0 mm 0.00 in0.0 mm
01:43 PM 111.4°F44.1°C 69.4°F20.8°C 13% - N N -- 29.88 in1011.9 mb 0.00 in0.0 mm 0.00 in0.0 mm 0.00 in0.0 mm
01:24 PM 111.4°F44.1°C 69.4°F20.8°C 13% - N N -- 29.89 in1012.2 mb 0.00 in0.0 mm 0.00 in0.0 mm 0.00 in0.0 mm
01:03 PM 112.3°F44.6°C 70.7°F21.5°C 14% - N N -- 29.90 in1012.5 mb 0.00 in0.0 mm 0.00 in0.0 mm 0.00 in0.0 mm
12:43 PM 110.8°F43.8°C 70.0°F21.1°C 15% - N N -- 29.91 in1012.9 mb 0.00 in0.0 mm 0.00 in0.0 mm 0.00 in0.0 mm
12:23 PM 109.6°F43.1°C 69.3°F20.7°C 16% - N N -- 29.92 in1013.2 mb 0.00 in0.0 mm 0.00 in0.0 mm 0.00 in0.0 mm
12:02 PM 110.3°F43.5°C 69.4°F20.8°C 15% - N N -- 29.93 in1013.5 mb 0.00 in0.0 mm 0.00 in0.0 mm 0.00 in0.0 mm
11:43 AM 111.9°F44.4°C 71.4°F21.9°C 16% - N N -- 29.95 in1014.2 mb 0.00 in0.0 mm 0.00 in0.0 mm 0.00 in0.0 mm
11:22 AM 112.1°F44.5°C 71.6°F22.0°C 16% - N N -- 29.96 in1014.6 mb 0.00 in0.0 mm 0.00 in0.0 mm 0.00 in0.0 mm
11:02 AM 111.4°F44.1°C 70.9°F21.6°C 16% - N N -- 29.96 in1014.6 mb 0.00 in0.0 mm 0.00 in0.0 mm 0.00 in0.0 mm
10:42 AM 110.3°F43.5°C 70.0°F21.1°C 16% - N N -- 29.97 in1014.9 mb 0.00 in0.0 mm 0.00 in0.0 mm 0.00 in0.0 mm
10:22 AM 109.0°F42.8°C 68.9°F20.5°C 16% - N N -- 29.98 in1015.2 mb 0.00 in0.0 mm 0.00 in0.0 mm 0.00 in0.0 mm
10:02 AM 107.6°F42.0°C 68.2°F20.1°C 17% - N N -- 29.97 in1014.9 mb 0.00 in0.0 mm 0.00 in0.0 mm 0.00 in0.0 mm
09:41 AM 106.2°F41.2°C 67.3°F19.6°C 18% - N N -- 29.98 in1015.2 mb 0.00 in0.0 mm 0.00 in0.0 mm 0.00 in0.0 mm
09:21 AM 103.5°F39.7°C 66.0°F18.9°C 20% - N N -- 29.98 in1015.2 mb 0.00 in0.0 mm 0.00 in0.0 mm 0.00 in0.0 mm
09:01 AM 101.3°F38.5°C 64.6°F18.1°C 21% - N N -- 29.98 in1015.2 mb 0.00 in0.0 mm 0.00 in0.0 mm 0.00 in0.0 mm
08:41 AM 98.8°F37.1°C 62.2°F16.8°C 21% - N N -- 29.98 in1015.2 mb 0.00 in0.0 mm 0.00 in0.0 mm 0.00 in0.0 mm
08:21 AM 95.7°F35.4°C 60.6°F15.9°C 23% - N N -- 29.98 in1015.2 mb 0.00 in0.0 mm 0.00 in0.0 mm 0.00 in0.0 mm
08:01 AM 92.5°F33.6°C 58.6°F14.8°C 25% - N N -- 29.98 in1015.2 mb 0.00 in0.0 mm 0.00 in0.0 mm 0.00 in0.0 mm
07:40 AM 89.4°F31.9°C 56.8°F13.8°C 27% - N N -- 29.98 in1015.2 mb 0.00 in0.0 mm 0.00 in0.0 mm 0.00 in0.0 mm
07:20 AM 86.5°F30.3°C 55.6°F13.1°C 30% - N N -- 29.97 in1014.9 mb 0.00 in0.0 mm 0.00 in0.0 mm 0.00 in0.0 mm
07:00 AM 83.7°F28.7°C 53.6°F12.0°C 31% - N N -- 29.97 in1014.9 mb 0.00 in0.0 mm 0.00 in0.0 mm 0.00 in0.0 mm
06:40 AM 81.3°F27.4°C 51.1°F10.6°C 30% - N N -- 29.97 in1014.9 mb 0.00 in0.0 mm 0.00 in0.0 mm 0.00 in0.0 mm
06:20 AM 80.1°F26.7°C 49.8°F9.9°C 30% - N N -- 29.96 in1014.6 mb 0.00 in0.0 mm 0.00 in0.0 mm 0.00 in0.0 mm
05:59 AM 80.1°F26.7°C 49.5°F9.7°C 29% - N N -- 29.96 in1014.6 mb 0.00 in0.0 mm 0.00 in0.0 mm 0.00 in0.0 mm
05:40 AM 80.2°F26.8°C 49.6°F9.8°C 29% - N N -- 29.95 in1014.2 mb 0.00 in0.0 mm 0.00 in0.0 mm 0.00 in0.0 mm
05:19 AM 81.0°F27.2°C 49.8°F9.9°C 28% - N N -- 29.95 in1014.2 mb 0.00 in0.0 mm 0.00 in0.0 mm 0.00 in0.0 mm
04:59 AM 81.1°F27.3°C 50.0°F10.0°C 28% - N N -- 29.94 in1013.9 mb 0.00 in0.0 mm 0.00 in0.0 mm 0.00 in0.0 mm
04:39 AM 81.9°F27.7°C 50.2°F10.1°C 27% - N N -- 29.94 in1013.9 mb 0.00 in0.0 mm 0.00 in0.0 mm 0.00 in0.0 mm
04:18 AM 82.4°F28.0°C 50.7°F10.4°C 27% - N N -- 29.93 in1013.5 mb 0.00 in0.0 mm 0.00 in0.0 mm 0.00 in0.0 mm
03:59 AM 83.1°F28.4°C 50.9°F10.5°C 26% - N N -- 29.93 in1013.5 mb 0.00 in0.0 mm 0.00 in0.0 mm 0.00 in0.0 mm
03:38 AM 83.8°F28.8°C 51.1°F10.6°C 25% - N N -- 29.94 in1013.9 mb 0.00 in0.0 mm 0.00 in0.0 mm 0.00 in0.0 mm
03:19 AM 84.7°F29.3°C 51.4°F10.8°C 24% - N N -- 29.94 in1013.9 mb 0.00 in0.0 mm 0.00 in0.0 mm 0.00 in0.0 mm
02:58 AM 85.1°F29.5°C 51.6°F10.9°C 24% - N N -- 29.94 in1013.9 mb 0.00 in0.0 mm 0.00 in0.0 mm 0.00 in0.0 mm
02:38 AM 86.0°F30.0°C 52.5°F11.4°C 24% - N N -- 29.94 in1013.9 mb 0.00 in0.0 mm 0.00 in0.0 mm 0.00 in0.0 mm
02:18 AM 87.1°F30.6°C 52.5°F11.4°C 22% - N N -- 29.93 in1013.5 mb 0.00 in0.0 mm 0.00 in0.0 mm 0.00 in0.0 mm
01:57 AM 88.0°F31.1°C 52.9°F11.6°C 21% - N N -- 29.94 in1013.9 mb 0.00 in0.0 mm 0.00 in0.0 mm 0.00 in0.0 mm
01:38 AM 88.9°F31.6°C 53.6°F12.0°C 21% - N N -- 29.94 in1013.9 mb 0.00 in0.0 mm 0.00 in0.0 mm 0.00 in0.0 mm
01:17 AM 90.1°F32.3°C 54.3°F12.4°C 20% - N N -- 29.94 in1013.9 mb 0.00 in0.0 mm 0.00 in0.0 mm 0.00 in0.0 mm
12:57 AM 91.8°F33.2°C 55.2°F12.9°C 19% - N N -- 29.93 in1013.5 mb 0.00 in0.0 mm 0.00 in0.0 mm 0.00 in0.0 mm
12:37 AM 93.0°F33.9°C 55.9°F13.3°C 18% - N N -- 29.93 in1013.5 mb 0.00 in0.0 mm 0.00 in0.0 mm 0.00 in0.0 mm
12:17 AM 93.9°F34.4°C 56.3°F13.5°C 17% - N N -- 29.93 in1013.5 mb 0.00 in0.0 mm 0.00 in0.0 mm 0.00 in0.0 mm